Malagon, Spain
Current Conditions -  °F | °C
As of 4:00 PM on Thursday 23 Oct 2014 (Local Time) from LEAO Reporting Station
Clear Clear  
Wind Chill: 75°   Ceiling: Unl
Heat Index: 75°   Visibility: 6mi
Dew Point: 25°   Wind: 9mph
Humidity: 15%   Direction: 50°NE
Pressure: 30.21"   Gusts: NA
Location:  39.17°N, 3.85°W
Report Text: LEAO 231400Z 05008KT 360V100 CAVOK 24/M04 Q1023
Loading
Personal Weather Stations






























Interactive Weather Map
Tropical Storm Tracking
New forecast layout! Learn more

10-Day Weather Forecast

Advertisements
Track Severe Weather on mobile